This is the latest recevied weather packets stored in our database for station/object SQ7ACP-3. If no packets are shown the sender has not sent any weather packets the latest 10 day(s).
| Time | Temp. | Humidity | Pressure | Rain* | Wind** | Luminosity | Snow |
|---|---|---|---|---|---|---|---|
| 1778158867 | 16.67° C | 75% | 1010.8 hPa | 0 mm | - | - | - |
| 1778158267 | 16.67° C | 76% | 1011 hPa | 0 mm | - | - | - |
| 1778157654 | 16.67° C | 75% | 1011 hPa | 0 mm | - | - | - |
| 1778157042 | 17.22° C | 73% | 1011 hPa | 0 mm | - | - | - |
| 1778156430 | 16.67° C | 75% | 1011 hPa | 0 mm | - | - | - |
| 1778155817 | 16.11° C | 77% | 1011.1 hPa | 0 mm | - | - | - |
| 1778155205 | 16.67° C | 75% | 1011.1 hPa | 0 mm | - | - | - |
| 1778154605 | 15.56° C | 78% | 1011.1 hPa | 0 mm | - | - | - |
| 1778153995 | 15° C | 79% | 1011.1 hPa | 0 mm | - | - | - |
| 1778153382 | 14.44° C | 83% | 1011.3 hPa | 0 mm | - | - | - |
| 1778152779 | 13.89° C | 85% | 1011.3 hPa | 0 mm | - | - | - |
| 1778152179 | 13.89° C | 85% | 1011.2 hPa | 0 mm | - | - | - |
| 1778151568 | 14.44° C | 83% | 1011.1 hPa | 0 mm | - | - | - |
| 1778150967 | 14.44° C | 84% | 1011 hPa | 0 mm | - | - | - |
| 1778150367 | 14.44° C | 84% | 1010.8 hPa | 0 mm | - | - | - |
| 1778149754 | 13.89° C | 85% | 1010.7 hPa | 0 mm | - | - | - |
| 1778149154 | 13.89° C | 85% | 1010.5 hPa | 0 mm | - | - | - |
| 1778148542 | 13.33° C | 87% | 1010.4 hPa | 0 mm | - | - | - |
| 1778147932 | 13.33° C | 88% | 1010.3 hPa | 0 mm | - | - | - |
| 1778147317 | 13.33° C | 90% | 1010.2 hPa | 0 mm | - | - | - |
| 1778146705 | 13.33° C | 90% | 1010.2 hPa | 0 mm | - | - | - |
| 1778146104 | 13.33° C | 91% | 1010 hPa | 0 mm | - | - | - |
| 1778145495 | 13.33° C | 91% | 1009.8 hPa | 0 mm | - | - | - |
| 1778144882 | 13.89° C | 90% | 1009.7 hPa | 0 mm | - | - | - |
| 1778144269 | 13.89° C | 90% | 1009.6 hPa | 0 mm | - | - | - |
* Rain latest hour (hover to see other rain measurements)
** Current wind speed in m/s (hover to see current wind gust speed)